Wetterdaten: Sonntag, 09.02.2014
Datum Zeit Temperatur Luftfeuchte Luftdruck Regen Wind Richtung Richtung Taupunkt Windchill Windben
09.02.2014 00:00 2,7 C 69 % 1002,4 hPa 0,0 l/m 8,2 km/h (2 Bft) S-SO 157 -2,4 C -0,7 C 18,0 km/h (3 Bft)
09.02.2014 00:05 2,9 C 71 % 1002,4 hPa 0,0 l/m 9,7 km/h (2 Bft) SO 135 -1,8 C -2,3 C 9,7 km/h (2 Bft)
09.02.2014 00:10 2,9 C 72 % 1002,4 hPa 0,0 l/m 11,3 km/h (2 Bft) S 180 -1,6 C -3,8 C 19,0 km/h (3 Bft)
09.02.2014 00:15 2,9 C 73 % 1002,4 hPa 0,0 l/m 10,8 km/h (2 Bft) NO 45 -1,5 C -3,3 C 6,9 km/h (2 Bft)
09.02.2014 00:20 2,9 C 74 % 1002,4 hPa 0,0 l/m 11,1 km/h (2 Bft) S-SO 157 -1,3 C -3,5 C 22,5 km/h (4 Bft)
09.02.2014 00:25 2,8 C 74 % 1002,4 hPa 0,0 l/m 10,0 km/h (2 Bft) O-SO 112 -1,4 C -2,5 C 14,2 km/h (3 Bft)
09.02.2014 00:30 2,7 C 74 % 1002,4 hPa 0,0 l/m 8,4 km/h (2 Bft) S 180 -1,5 C -0,8 C 6,0 km/h (2 Bft)
09.02.2014 00:35 2,8 C 75 % 1002,4 hPa 0,0 l/m 8,7 km/h (2 Bft) S-SW 202 -1,2 C -1,1 C 15,6 km/h (3 Bft)
09.02.2014 00:40 2,9 C 75 % 1002,4 hPa 0,0 l/m 9,8 km/h (2 Bft) S-SW 202 -1,1 C -2,3 C 7,1 km/h (2 Bft)
09.02.2014 00:45 2,9 C 75 % 1002,2 hPa 0,0 l/m 10,8 km/h (2 Bft) S-SW 202 -1,1 C -3,3 C 15,8 km/h (3 Bft)
09.02.2014 00:50 3,0 C 74 % 1002,2 hPa 0,0 l/m 11,1 km/h (2 Bft) S 180 -1,2 C -3,5 C 9,7 km/h (2 Bft)
09.02.2014 00:55 3,0 C 74 % 1002,2 hPa 0,0 l/m 10,8 km/h (2 Bft) S 180 -1,2 C -3,2 C 11,7 km/h (2 Bft)
09.02.2014 01:00 2,8 C 76 % 1002,2 hPa 0,0 l/m 8,4 km/h (2 Bft) S 180 -1,0 C -0,7 C 6,8 km/h (2 Bft)
09.02.2014 01:05 2,7 C 76 % 1002,1 hPa 0,0 l/m 7,9 km/h (2 Bft) O-SO 112 -1,1 C -0,1 C 7,6 km/h (2 Bft)
09.02.2014 01:10 2,7 C 76 % 1002,1 hPa 0,0 l/m 7,6 km/h (2 Bft) S 180 -1,1 C 0,1 C 9,5 km/h (2 Bft)
09.02.2014 01:15 2,7 C 76 % 1002,1 hPa 0,0 l/m 7,6 km/h (2 Bft) S 180 -1,1 C 0,1 C 10,8 km/h (2 Bft)
09.02.2014 01:20 2,7 C 76 % 1002,1 hPa 0,0 l/m 7,2 km/h (2 Bft) S-SO 157 -1,1 C 0,5 C 13,5 km/h (3 Bft)
09.02.2014 01:25 2,9 C 76 % 1002,1 hPa 0,0 l/m 8,2 km/h (2 Bft) S 180 -0,9 C -0,6 C 10,8 km/h (2 Bft)
09.02.2014 01:30 2,9 C 76 % 1002,1 hPa 0,0 l/m 9,5 km/h (2 Bft) S-SO 157 -0,9 C -2,0 C 19,3 km/h (3 Bft)
09.02.2014 01:35 2,9 C 77 % 1002,1 hPa 0,0 l/m 10,9 km/h (2 Bft) S-SW 202 -0,7 C -3,8 C 22,4 km/h (4 Bft)
09.02.2014 01:40 2,7 C 79 % 1002,1 hPa 0,0 l/m 12,7 km/h (3 Bft) S 180 -0,6 C -5,8 C 31,4 km/h (5 Bft)
09.02.2014 01:45 2,6 C 80 % 1002,4 hPa 0,0 l/m 12,4 km/h (3 Bft) O-NO 67 -0,5 C -6,0 C 14,6 km/h (3 Bft)
09.02.2014 01:50 2,4 C 81 % 1002,4 hPa 0,0 l/m 11,6 km/h (2 Bft) O-SO 112 -0,5 C -5,5 C 16,1 km/h (3 Bft)
09.02.2014 01:55 2,5 C 82 % 1002,4 hPa 0,0 l/m 10,3 km/h (2 Bft) O-NO 67 -0,3 C -4,4 C 12,6 km/h (3 Bft)
09.02.2014 02:00 2,3 C 83 % 1002,4 hPa 0,0 l/m 8,4 km/h (2 Bft) O-SO 112 -0,3 C -2,2 C 5,5 km/h (1 Bft)
09.02.2014 02:05 2,3 C 83 % 1002,4 hPa 0,0 l/m 6,8 km/h (2 Bft) O-SO 112 -0,3 C -0,1 C 7,1 km/h (2 Bft)
09.02.2014 02:10 2,4 C 84 % 1002,4 hPa 0,0 l/m 6,3 km/h (2 Bft) S-SO 157 -0,0 C 0,4 C 14,3 km/h (3 Bft)
09.02.2014 02:15 2,4 C 84 % 1002,4 hPa 0,0 l/m 6,6 km/h (2 Bft) S-SO 157 -0,0 C 0,1 C 8,5 km/h (2 Bft)
09.02.2014 02:20 2,4 C 84 % 1002,4 hPa 0,0 l/m 7,2 km/h (2 Bft) S 180 -0,0 C -0,6 C 6,9 km/h (2 Bft)
09.02.2014 02:25 2,4 C 84 % 1002,4 hPa 0,0 l/m 9,5 km/h (2 Bft) S 180 -0,0 C -3,5 C 24,1 km/h (4 Bft)
09.02.2014 02:30 2,3 C 85 % 1002,4 hPa 0,0 l/m 10,5 km/h (2 Bft) S-SO 157 0,0 C -4,6 C 9,3 km/h (2 Bft)
09.02.2014 02:35 2,3 C 85 % 1002,4 hPa 0,0 l/m 9,2 km/h (2 Bft) O 90 0,0 C -3,2 C 6,3 km/h (2 Bft)
09.02.2014 02:40 2,3 C 84 % 1002,4 hPa 0,0 l/m 8,0 km/h (2 Bft) SO 135 -0,1 C -1,8 C 10,1 km/h (2 Bft)
09.02.2014 02:45 2,3 C 84 % 1002,4 hPa 0,0 l/m 8,2 km/h (2 Bft) S-SO 157 -0,1 C -1,9 C 5,0 km/h (1 Bft)
09.02.2014 02:50 2,4 C 83 % 1002,4 hPa 0,0 l/m 8,4 km/h (2 Bft) S-SO 157 -0,2 C -1,8 C 11,6 km/h (2 Bft)
09.02.2014 02:55 2,4 C 83 % 1002,4 hPa 0,0 l/m 8,2 km/h (2 Bft) S-SO 157 -0,2 C -1,4 C 12,2 km/h (2 Bft)
09.02.2014 03:00 2,4 C 82 % 1002,4 hPa 0,0 l/m 8,5 km/h (2 Bft) S-SO 157 -0,4 C -1,7 C 18,2 km/h (3 Bft)
09.02.2014 03:05 2,4 C 80 % 1002,5 hPa 0,0 l/m 9,5 km/h (2 Bft) S 180 -0,7 C -3,1 C 15,0 km/h (3 Bft)
09.02.2014 03:10 2,0 C 81 % 1002,5 hPa 0,0 l/m 12,4 km/h (3 Bft) S 180 -0,9 C -6,8 C 14,2 km/h (3 Bft)
09.02.2014 03:15 1,8 C 83 % 1002,5 hPa 0,0 l/m 12,4 km/h (3 Bft) S-SO 157 -0,8 C -7,3 C 7,2 km/h (2 Bft)
09.02.2014 03:20 1,5 C 86 % 1002,5 hPa 0,0 l/m 12,4 km/h (3 Bft) S 180 -0,6 C -7,7 C 14,0 km/h (3 Bft)
09.02.2014 03:25 1,4 C 87 % 1002,9 hPa 0,0 l/m 11,4 km/h (2 Bft) S 180 -0,5 C -6,8 C 7,2 km/h (2 Bft)
09.02.2014 03:30 1,4 C 88 % 1002,9 hPa 0,0 l/m 8,5 km/h (2 Bft) S-SO 157 -0,4 C -3,6 C 11,1 km/h (2 Bft)
09.02.2014 03:35 1,3 C 89 % 1002,9 hPa 0,0 l/m 7,9 km/h (2 Bft) S 180 -0,3 C -2,8 C 13,5 km/h (3 Bft)
09.02.2014 03:40 1,3 C 90 % 1002,9 hPa 0,0 l/m 8,5 km/h (2 Bft) SO 135 -0,2 C -3,6 C 8,0 km/h (2 Bft)
09.02.2014 03:43 1,3 C 90 % 1002,9 hPa 0,0 l/m 7,4 km/h (2 Bft) S 180 -0,2 C -2,3 C 7,4 km/h (2 Bft)
09.02.2014 03:45 1,3 C 90 % 1002,9 hPa 0,0 l/m 7,4 km/h (2 Bft) S 180 -0,2 C -2,3 C 7,4 km/h (2 Bft)
09.02.2014 03:50 1,3 C 91 % 1002,9 hPa 0,0 l/m 6,4 km/h (2 Bft) S 180 -0,0 C -0,8 C 12,2 km/h (2 Bft)
09.02.2014 03:55 1,2 C 91 % 1002,9 hPa 0,0 l/m 6,6 km/h (2 Bft) S 180 -0,1 C -1,1 C 7,1 km/h (2 Bft)
09.02.2014 04:00 1,2 C 92 % 1002,9 hPa 0,0 l/m 7,1 km/h (2 Bft) S 180 0,0 C -1,9 C 5,6 km/h (1 Bft)
09.02.2014 04:05 1,2 C 92 % 1003,1 hPa 0,0 l/m 7,2 km/h (2 Bft) S-SO 157 0,0 C -2,0 C 5,6 km/h (1 Bft)
09.02.2014 04:10 1,2 C 92 % 1003,1 hPa 0,0 l/m 6,8 km/h (2 Bft) SO 135 0,0 C -1,3 C 4,3 km/h (1 Bft)
09.02.2014 04:15 1,2 C 93 % 1003,1 hPa 0,0 l/m 6,6 km/h (2 Bft) S-SO 157 0,2 C -1,1 C 12,1 km/h (2 Bft)
09.02.2014 04:20 1,2 C 93 % 1003,1 hPa 0,0 l/m 7,4 km/h (2 Bft) S 180 0,2 C -2,2 C 8,7 km/h (2 Bft)
09.02.2014 04:25 1,2 C 93 % 1002,9 hPa 0,0 l/m 8,4 km/h (2 Bft) S 180 0,2 C -3,4 C 16,1 km/h (3 Bft)
09.02.2014 04:30 1,2 C 93 % 1002,9 hPa 0,0 l/m 8,7 km/h (2 Bft) S-SW 202 0,2 C -3,7 C 8,5 km/h (2 Bft)
09.02.2014 04:35 1,3 C 93 % 1002,9 hPa 0,0 l/m 8,7 km/h (2 Bft) SO 135 0,3 C -3,6 C 11,1 km/h (2 Bft)
09.02.2014 04:40 1,3 C 93 % 1002,9 hPa 0,0 l/m 9,7 km/h (2 Bft) S-SW 202 0,3 C -4,6 C 15,9 km/h (3 Bft)
09.02.2014 04:45 1,3 C 93 % 1002,8 hPa 0,0 l/m 10,5 km/h (2 Bft) S 180 0,3 C -5,6 C 7,7 km/h (2 Bft)
09.02.2014 04:50 1,3 C 93 % 1002,8 hPa 0,0 l/m 9,3 km/h (2 Bft) S 180 0,3 C -4,2 C 11,4 km/h (2 Bft)
09.02.2014 04:55 1,4 C 93 % 1002,8 hPa 0,0 l/m 9,3 km/h (2 Bft) O-SO 112 0,4 C -4,0 C 9,0 km/h (2 Bft)
09.02.2014 05:00 1,4 C 93 % 1002,8 hPa 0,0 l/m 10,0 km/h (2 Bft) S 180 0,4 C -4,7 C 19,6 km/h (3 Bft)
09.02.2014 05:05 1,4 C 93 % 1002,8 hPa 0,0 l/m 10,0 km/h (2 Bft) S 180 0,4 C -4,4 C 11,4 km/h (2 Bft)
09.02.2014 05:10 1,4 C 92 % 1002,8 hPa 0,0 l/m 9,0 km/h (2 Bft) W-SW 247 0,2 C -3,1 C 9,8 km/h (2 Bft)
09.02.2014 05:15 1,4 C 92 % 1002,8 hPa 0,0 l/m 9,0 km/h (2 Bft) S 180 0,2 C -3,1 C 10,0 km/h (2 Bft)
09.02.2014 05:20 1,5 C 91 % 1002,8 hPa 0,0 l/m 9,2 km/h (2 Bft) S 180 0,2 C -3,2 C 16,7 km/h (3 Bft)
09.02.2014 05:25 1,5 C 90 % 1002,7 hPa 0,0 l/m 8,5 km/h (2 Bft) N-NW 337 0,0 C -2,4 C 11,7 km/h (2 Bft)
09.02.2014 05:30 1,5 C 89 % 1002,7 hPa 0,0 l/m 9,0 km/h (2 Bft) O 90 -0,1 C -2,9 C 11,6 km/h (2 Bft)
09.02.2014 05:35 1,5 C 89 % 1002,7 hPa 0,0 l/m 8,7 km/h (2 Bft) S 180 -0,1 C -2,5 C 8,9 km/h (2 Bft)
09.02.2014 05:40 1,5 C 88 % 1002,7 hPa 0,0 l/m 7,9 km/h (2 Bft) O 90 -0,3 C -1,7 C 9,2 km/h (2 Bft)
09.02.2014 05:45 1,6 C 87 % 1002,7 hPa 0,0 l/m 7,2 km/h (2 Bft) S-SO 157 -0,3 C -0,9 C 8,4 km/h (2 Bft)
09.02.2014 05:50 1,6 C 86 % 1002,7 hPa 0,0 l/m 6,4 km/h (2 Bft) O-SO 112 -0,5 C 0,2 C 6,1 km/h (2 Bft)
09.02.2014 05:55 1,6 C 86 % 1002,7 hPa 0,0 l/m 6,6 km/h (2 Bft) S-SO 157 -0,5 C 0,0 C 7,7 km/h (2 Bft)
09.02.2014 06:00 1,7 C 86 % 1002,7 hPa 0,0 l/m 6,9 km/h (2 Bft) SO 135 -0,4 C -0,4 C 8,7 km/h (2 Bft)
09.02.2014 06:05 1,6 C 85 % 1002,6 hPa 0,0 l/m 6,8 km/h (2 Bft) S-SO 157 -0,6 C -0,2 C 6,1 km/h (2 Bft)
09.02.2014 06:10 1,6 C 85 % 1002,6 hPa 0,0 l/m 6,0 km/h (2 Bft) O-SO 112 -0,6 C 0,4 C 3,9 km/h (1 Bft)
09.02.2014 06:15 1,6 C 85 % 1002,6 hPa 0,0 l/m 5,1 km/h (1 Bft) SO 135 -0,6 C 0,7 C 6,3 km/h (2 Bft)
09.02.2014 06:20 1,6 C 85 % 1002,6 hPa 0,0 l/m 6,3 km/h (2 Bft) S-SW 202 -0,6 C 0,3 C 10,5 km/h (2 Bft)
09.02.2014 06:25 1,7 C 85 % 1002,6 hPa 0,0 l/m 7,2 km/h (2 Bft) O-SO 112 -0,5 C -0,6 C 7,6 km/h (2 Bft)
09.02.2014 06:30 1,7 C 84 % 1002,6 hPa 0,0 l/m 6,6 km/h (2 Bft) S 180 -0,7 C 0,1 C 7,1 km/h (2 Bft)
09.02.2014 06:35 1,6 C 85 % 1002,6 hPa 0,0 l/m 6,0 km/h (2 Bft) SO 135 -0,6 C 0,6 C 5,8 km/h (2 Bft)
09.02.2014 06:40 1,6 C 85 % 1002,6 hPa 0,0 l/m 5,8 km/h (2 Bft) SO 135 -0,6 C 0,7 C 3,9 km/h (1 Bft)
09.02.2014 06:45 1,5 C 86 % 1002,5 hPa 0,0 l/m 4,3 km/h (1 Bft) SO 135 -0,6 C 1,3 C 7,6 km/h (2 Bft)
09.02.2014 06:50 1,6 C 86 % 1002,5 hPa 0,0 l/m 4,0 km/h (1 Bft) O 90 -0,5 C 1,4 C 7,6 km/h (2 Bft)
09.02.2014 06:55 1,8 C 85 % 1002,5 hPa 0,0 l/m 5,5 km/h (1 Bft) SO 135 -0,4 C 0,7 C 6,4 km/h (2 Bft)
09.02.2014 07:00 1,9 C 83 % 1002,5 hPa 0,0 l/m 6,3 km/h (2 Bft) SO 135 -0,7 C 0,5 C 6,8 km/h (2 Bft)
09.02.2014 07:05 1,9 C 82 % 1002,4 hPa 0,0 l/m 6,1 km/h (2 Bft) S-SO 157 -0,8 C 0,6 C 9,2 km/h (2 Bft)
09.02.2014 07:10 1,8 C 84 % 1002,4 hPa 0,0 l/m 4,7 km/h (1 Bft) S-SO 157 -0,6 C 1,1 C 4,3 km/h (1 Bft)
09.02.2014 07:15 1,6 C 85 % 1002,4 hPa 0,0 l/m 4,7 km/h (1 Bft) S 180 -0,6 C 1,1 C 6,1 km/h (2 Bft)
09.02.2014 07:20 1,8 C 85 % 1002,4 hPa 0,0 l/m 4,8 km/h (1 Bft) S-SO 157 -0,4 C 1,1 C 6,3 km/h (2 Bft)
09.02.2014 07:25 1,7 C 86 % 1002,6 hPa 0,0 l/m 5,1 km/h (1 Bft) S-SO 157 -0,4 C 0,9 C 7,6 km/h (2 Bft)
09.02.2014 07:30 1,8 C 86 % 1002,6 hPa 0,0 l/m 5,5 km/h (1 Bft) S-SW 202 -0,3 C 0,8 C 6,6 km/h (2 Bft)
09.02.2014 07:35 1,8 C 86 % 1002,6 hPa 0,0 l/m 6,3 km/h (2 Bft) S-SO 157 -0,3 C 0,6 C 11,4 km/h (2 Bft)
09.02.2014 07:40 1,8 C 85 % 1002,6 hPa 0,0 l/m 7,6 km/h (2 Bft) S-SO 157 -0,4 C -0,9 C 7,2 km/h (2 Bft)
09.02.2014 07:45 1,7 C 85 % 1002,9 hPa 0,0 l/m 7,7 km/h (2 Bft) SO 135 -0,5 C -1,2 C 7,4 km/h (2 Bft)
09.02.2014 07:50 1,8 C 85 % 1002,9 hPa 0,0 l/m 6,8 km/h (2 Bft) SO 135 -0,4 C -0,1 C 8,4 km/h (2 Bft)
09.02.2014 07:55 1,8 C 84 % 1002,9 hPa 0,0 l/m 7,1 km/h (2 Bft) SO 135 -0,6 C -0,5 C 7,6 km/h (2 Bft)
09.02.2014 08:00 1,9 C 83 % 1002,9 hPa 0,0 l/m 6,6 km/h (2 Bft) O-SO 112 -0,7 C 0,1 C 9,7 km/h (2 Bft)
09.02.2014 08:05 2,0 C 82 % 1003,0 hPa 0,0 l/m 6,0 km/h (2 Bft) O-SO 112 -0,7 C 0,6 C 6,1 km/h (2 Bft)
09.02.2014 08:10 1,9 C 82 % 1003,0 hPa 0,0 l/m 5,8 km/h (2 Bft) O-SO 112 -0,8 C 0,7 C 6,4 km/h (2 Bft)
09.02.2014 08:15 1,9 C 83 % 1003,0 hPa 0,0 l/m 4,8 km/h (1 Bft) O 90 -0,7 C 1,0 C 6,6 km/h (2 Bft)
09.02.2014 08:20 1,9 C 83 % 1003,0 hPa 0,0 l/m 4,2 km/h (1 Bft) SO 135 -0,7 C 1,3 C 3,1 km/h (1 Bft)
09.02.2014 08:25 2,0 C 83 % 1003,4 hPa 0,0 l/m 4,0 km/h (1 Bft) S 180 -0,6 C 1,4 C 5,1 km/h (1 Bft)
09.02.2014 08:30 1,9 C 84 % 1003,4 hPa 0,0 l/m 2,9 km/h (1 Bft) O-NO 67 -0,5 C 1,9 C 1,6 km/h (1 Bft)
09.02.2014 08:35 1,8 C 85 % 1003,4 hPa 0,0 l/m 2,4 km/h (1 Bft) O 90 -0,4 C 2,1 C 2,3 km/h (1 Bft)
09.02.2014 08:40 1,9 C 85 % 1003,4 hPa 0,0 l/m 1,9 km/h (1 Bft) NO 45 -0,3 C 2,1 C 7,1 km/h (2 Bft)
09.02.2014 08:44 2,1 C 83 % 1003,3 hPa 0,0 l/m 2,7 km/h (1 Bft) S 180 -0,5 C 2,2 C 2,7 km/h (1 Bft)
09.02.2014 08:45 2,1 C 83 % 1003,3 hPa 0,0 l/m 2,7 km/h (1 Bft) S 180 -0,5 C 2,2 C 2,7 km/h (1 Bft)
09.02.2014 08:50 2,3 C 83 % 1003,3 hPa 0,0 l/m 3,9 km/h (1 Bft) SO 135 -0,3 C 1,7 C 5,6 km/h (1 Bft)
09.02.2014 08:55 2,5 C 82 % 1003,3 hPa 0,0 l/m 4,3 km/h (1 Bft) SO 135 -0,3 C 1,7 C 6,6 km/h (2 Bft)
09.02.2014 09:00 2,6 C 78 % 1003,3 hPa 0,0 l/m 6,0 km/h (2 Bft) S 180 -0,8 C 1,4 C 6,9 km/h (2 Bft)
09.02.2014 09:05 2,5 C 79 % 1004,0 hPa 0,0 l/m 5,6 km/h (1 Bft) S 180 -0,8 C 1,7 C 6,9 km/h (2 Bft)
09.02.2014 09:10 2,7 C 76 % 1004,0 hPa 0,0 l/m 6,8 km/h (2 Bft) S 180 -1,1 C 0,9 C 10,1 km/h (2 Bft)
09.02.2014 09:15 2,8 C 73 % 1004,0 hPa 0,0 l/m 8,0 km/h (2 Bft) S 180 -1,5 C -0,5 C 7,1 km/h (2 Bft)
09.02.2014 09:20 2,9 C 68 % 1004,0 hPa 0,0 l/m 9,8 km/h (2 Bft) S 180 -2,4 C -2,4 C 13,5 km/h (3 Bft)
09.02.2014 09:25 2,9 C 67 % 1003,7 hPa 0,0 l/m 10,6 km/h (2 Bft) S-SO 157 -2,6 C -3,3 C 20,1 km/h (4 Bft)
09.02.2014 09:30 2,9 C 65 % 1003,7 hPa 0,0 l/m 10,0 km/h (2 Bft) S 180 -3,0 C -2,5 C 7,1 km/h (2 Bft)
09.02.2014 09:35 2,9 C 64 % 1003,7 hPa 0,0 l/m 10,1 km/h (2 Bft) S 180 -3,2 C -2,6 C 15,9 km/h (3 Bft)
09.02.2014 09:40 2,9 C 64 % 1003,7 hPa 0,0 l/m 10,5 km/h (2 Bft) S 180 -3,2 C -2,9 C 15,9 km/h (3 Bft)
09.02.2014 09:45 2,9 C 64 % 1003,9 hPa 0,0 l/m 9,8 km/h (2 Bft) S 180 -3,2 C -2,1 C 12,9 km/h (3 Bft)
09.02.2014 09:50 3,0 C 61 % 1003,9 hPa 0,0 l/m 10,8 km/h (2 Bft) W-SW 247 -3,8 C -3,2 C 12,6 km/h (3 Bft)
09.02.2014 09:55 3,1 C 61 % 1003,9 hPa 0,0 l/m 11,6 km/h (2 Bft) S 180 -3,7 C -3,8 C 15,4 km/h (3 Bft)
09.02.2014 10:00 3,2 C 59 % 1003,9 hPa 0,0 l/m 12,4 km/h (3 Bft) S 180 -4,0 C -4,6 C 26,4 km/h (4 Bft)
09.02.2014 10:05 3,1 C 60 % 1004,4 hPa 0,0 l/m 12,6 km/h (3 Bft) S-SW 202 -3,9 C -4,7 C 11,6 km/h (2 Bft)
09.02.2014 10:10 3,2 C 60 % 1004,4 hPa 0,0 l/m 11,7 km/h (2 Bft) S 180 -3,8 C -3,9 C 16,4 km/h (3 Bft)
09.02.2014 10:15 3,2 C 60 % 1004,4 hPa 0,0 l/m 11,7 km/h (2 Bft) S-SO 157 -3,8 C -3,9 C 23,0 km/h (4 Bft)
09.02.2014 10:20 3,3 C 59 % 1004,4 hPa 0,0 l/m 12,2 km/h (2 Bft) S-SO 157 -3,9 C -4,2 C 11,4 km/h (2 Bft)
09.02.2014 10:25 3,3 C 59 % 1004,2 hPa 0,0 l/m 13,0 km/h (3 Bft) S-SO 157 -3,9 C -4,9 C 9,5 km/h (2 Bft)
09.02.2014 10:30 3,4 C 59 % 1004,2 hPa 0,0 l/m 12,1 km/h (2 Bft) S 180 -3,8 C -3,9 C 7,7 km/h (2 Bft)
09.02.2014 10:35 3,4 C 58 % 1004,2 hPa 0,0 l/m 12,2 km/h (2 Bft) S 180 -4,1 C -4,0 C 24,6 km/h (4 Bft)
09.02.2014 10:40 3,6 C 58 % 1004,2 hPa 0,0 l/m 11,9 km/h (2 Bft) S-SW 202 -3,9 C -3,5 C 12,6 km/h (3 Bft)
09.02.2014 10:45 3,6 C 58 % 1004,1 hPa 0,0 l/m 11,3 km/h (2 Bft) S 180 -3,9 C -2,9 C 7,7 km/h (2 Bft)
09.02.2014 10:50 3,8 C 58 % 1004,1 hPa 0,0 l/m 9,0 km/h (2 Bft) S-SO 157 -3,7 C -0,3 C 10,5 km/h (2 Bft)
09.02.2014 10:55 3,7 C 57 % 1004,1 hPa 0,0 l/m 10,1 km/h (2 Bft) S 180 -4,0 C -1,5 C 13,8 km/h (3 Bft)
09.02.2014 11:00 3,8 C 58 % 1004,1 hPa 0,0 l/m 10,0 km/h (2 Bft) SO 135 -3,7 C -1,4 C 12,2 km/h (2 Bft)
09.02.2014 11:05 3,9 C 58 % 1004,3 hPa 0,0 l/m 8,2 km/h (2 Bft) S-SW 202 -3,6 C 0,6 C 9,2 km/h (2 Bft)
09.02.2014 11:10 3,8 C 58 % 1004,3 hPa 0,0 l/m 7,7 km/h (2 Bft) S 180 -3,7 C 1,4 C 7,2 km/h (2 Bft)
09.02.2014 11:15 3,8 C 58 % 1004,3 hPa 0,0 l/m 7,1 km/h (2 Bft) SO 135 -3,7 C 2,1 C 5,3 km/h (1 Bft)
09.02.2014 11:20 3,8 C 57 % 1004,3 hPa 0,0 l/m 8,2 km/h (2 Bft) S-SO 157 -3,9 C 0,8 C 8,7 km/h (2 Bft)
09.02.2014 11:25 3,9 C 58 % 1004,5 hPa 0,0 l/m 8,2 km/h (2 Bft) S-SO 157 -3,6 C 0,8 C 7,4 km/h (2 Bft)
09.02.2014 11:30 4,0 C 58 % 1004,5 hPa 0,0 l/m 7,2 km/h (2 Bft) S 180 -3,5 C 1,9 C 9,8 km/h (2 Bft)
09.02.2014 11:35 4,0 C 58 % 1004,5 hPa 0,0 l/m 6,9 km/h (2 Bft) SO 135 -3,5 C 2,4 C 6,8 km/h (2 Bft)
09.02.2014 11:40 4,2 C 58 % 1004,5 hPa 0,0 l/m 6,0 km/h (2 Bft) S 180 -3,3 C 3,4 C 7,4 km/h (2 Bft)
09.02.2014 11:45 4,2 C 56 % 1004,4 hPa 0,0 l/m 7,1 km/h (2 Bft) S-SO 157 -3,8 C 2,4 C 13,5 km/h (3 Bft)
09.02.2014 11:50 4,4 C 55 % 1004,4 hPa 0,0 l/m 9,0 km/h (2 Bft) S 180 -3,8 C 0,5 C 13,8 km/h (3 Bft)
09.02.2014 11:55 4,5 C 54 % 1004,4 hPa 0,0 l/m 9,2 km/h (2 Bft) S 180 -4,0 C 0,6 C 11,1 km/h (2 Bft)
09.02.2014 12:00 4,5 C 54 % 1004,4 hPa 0,0 l/m 10,0 km/h (2 Bft) S 180 -4,0 C -0,1 C 12,4 km/h (3 Bft)
09.02.2014 12:05 4,5 C 55 % 1004,6 hPa 0,0 l/m 9,7 km/h (2 Bft) S-SO 157 -3,7 C 0,2 C 13,8 km/h (3 Bft)
09.02.2014 12:10 4,6 C 53 % 1004,6 hPa 0,0 l/m 9,5 km/h (2 Bft) S 180 -4,1 C 0,4 C 13,0 km/h (3 Bft)
09.02.2014 12:15 4,6 C 53 % 1004,6 hPa 0,0 l/m 11,1 km/h (2 Bft) S-SW 202 -4,1 C -1,0 C 13,0 km/h (3 Bft)
09.02.2014 12:20 4,7 C 54 % 1004,6 hPa 0,0 l/m 10,3 km/h (2 Bft) S 180 -3,8 C -0,1 C 7,1 km/h (2 Bft)
09.02.2014 12:25 4,9 C 54 % 1004,5 hPa 0,0 l/m 8,5 km/h (2 Bft) S 180 -3,6 C 1,8 C 10,6 km/h (2 Bft)
09.02.2014 12:30 5,0 C 53 % 1004,5 hPa 0,0 l/m 9,2 km/h (2 Bft) S 180 -3,8 C 1,2 C 13,0 km/h (3 Bft)
09.02.2014 12:35 5,1 C 53 % 1004,5 hPa 0,0 l/m 10,5 km/h (2 Bft) S-SO 157 -3,7 C 0,1 C 12,7 km/h (3 Bft)
09.02.2014 12:40 5,4 C 53 % 1004,5 hPa 0,0 l/m 10,1 km/h (2 Bft) W-SW 247 -3,4 C 0,8 C 14,3 km/h (3 Bft)
09.02.2014 12:45 5,5 C 53 % 1004,5 hPa 0,0 l/m 9,2 km/h (2 Bft) S-SO 157 -3,3 C 2,0 C 11,1 km/h (2 Bft)
09.02.2014 12:50 5,5 C 53 % 1004,5 hPa 0,0 l/m 8,7 km/h (2 Bft) S 180 -3,3 C 2,7 C 12,2 km/h (2 Bft)
09.02.2014 12:55 5,3 C 52 % 1004,5 hPa 0,0 l/m 9,7 km/h (2 Bft) SO 135 -3,7 C 1,7 C 9,5 km/h (2 Bft)
09.02.2014 13:00 4,9 C 53 % 1004,5 hPa 0,0 l/m 9,7 km/h (2 Bft) S 180 -3,9 C 1,3 C 10,9 km/h (2 Bft)
09.02.2014 13:05 4,6 C 55 % 1004,7 hPa 0,0 l/m 8,4 km/h (2 Bft) S 180 -3,6 C 2,1 C 10,5 km/h (2 Bft)
09.02.2014 13:10 4,7 C 55 % 1004,7 hPa 0,0 l/m 8,5 km/h (2 Bft) S-SW 202 -3,6 C 1,8 C 17,1 km/h (3 Bft)
09.02.2014 13:15 4,8 C 55 % 1004,7 hPa 0,0 l/m 9,8 km/h (2 Bft) S-SO 157 -3,5 C 0,3 C 13,5 km/h (3 Bft)
09.02.2014 13:20 4,9 C 55 % 1004,7 hPa 0,0 l/m 9,7 km/h (2 Bft) S 180 -3,4 C 0,4 C 12,7 km/h (3 Bft)
09.02.2014 13:25 5,0 C 55 % 1004,8 hPa 0,0 l/m 8,4 km/h (2 Bft) S 180 -3,3 C 2,0 C 6,0 km/h (2 Bft)
09.02.2014 13:30 5,3 C 55 % 1004,8 hPa 0,0 l/m 7,1 km/h (2 Bft) O-SO 112 -3,0 C 3,8 C 6,1 km/h (2 Bft)
09.02.2014 13:35 5,4 C 54 % 1004,8 hPa 0,0 l/m 6,8 km/h (2 Bft) S-SO 157 -3,1 C 4,4 C 7,7 km/h (2 Bft)
09.02.2014 13:40 5,3 C 53 % 1004,8 hPa 0,0 l/m 7,7 km/h (2 Bft) S-SW 202 -3,5 C 3,4 C 18,3 km/h (3 Bft)
09.02.2014 13:44 5,2 C 52 % 1004,6 hPa 0,0 l/m 8,2 km/h (2 Bft) S 180 -3,8 C 2,9 C 8,5 km/h (2 Bft)
09.02.2014 13:45 5,2 C 52 % 1004,6 hPa 0,0 l/m 8,2 km/h (2 Bft) S 180 -3,8 C 2,9 C 8,5 km/h (2 Bft)
09.02.2014 13:50 5,3 C 51 % 1004,6 hPa 0,0 l/m 8,9 km/h (2 Bft) S 180 -4,0 C 2,2 C 11,4 km/h (2 Bft)
09.02.2014 13:55 5,3 C 52 % 1004,6 hPa 0,0 l/m 8,5 km/h (2 Bft) SW 225 -3,7 C 2,6 C 12,4 km/h (3 Bft)
09.02.2014 14:00 4,8 C 52 % 1004,6 hPa 0,0 l/m 9,7 km/h (2 Bft) SW 225 -4,2 C 1,0 C 15,0 km/h (3 Bft)
09.02.2014 14:05 4,3 C 54 % 1004,9 hPa 0,0 l/m 11,9 km/h (2 Bft) S 180 -4,2 C -1,6 C 13,0 km/h (3 Bft)
09.02.2014 14:10 2,6 C 69 % 1004,9 hPa 0,0 l/m 15,0 km/h (3 Bft) S-SO 157 -2,5 C -7,1 C 11,1 km/h (2 Bft)
09.02.2014 14:15 2,8 C 72 % 1004,9 hPa 0,0 l/m 14,0 km/h (3 Bft) O-SO 112 -1,7 C -7,7 C 16,6 km/h (3 Bft)
09.02.2014 14:20 3,4 C 70 % 1004,9 hPa 0,0 l/m 10,3 km/h (2 Bft) S-SO 157 -1,5 C -3,8 C 6,4 km/h (2 Bft)
09.02.2014 14:25 3,7 C 70 % 1004,9 hPa 0,0 l/m 8,9 km/h (2 Bft) S-SO 157 -1,3 C -1,6 C 7,4 km/h (2 Bft)
09.02.2014 14:30 3,8 C 69 % 1004,9 hPa 0,0 l/m 6,4 km/h (2 Bft) S-SO 157 -1,4 C 2,4 C 6,9 km/h (2 Bft)
09.02.2014 14:35 4,2 C 68 % 1004,9 hPa 0,0 l/m 6,1 km/h (2 Bft) SO 135 -1,2 C 3,2 C 7,2 km/h (2 Bft)
09.02.2014 14:40 4,4 C 65 % 1004,9 hPa 0,0 l/m 6,3 km/h (2 Bft) S 180 -1,6 C 3,7 C 8,5 km/h (2 Bft)
09.02.2014 14:45 4,2 C 65 % 1004,8 hPa 0,0 l/m 6,6 km/h (2 Bft) S 180 -1,8 C 3,4 C 6,6 km/h (2 Bft)
09.02.2014 14:50 4,3 C 64 % 1004,8 hPa 0,0 l/m 6,6 km/h (2 Bft) S 180 -1,9 C 3,3 C 7,1 km/h (2 Bft)
09.02.2014 14:55 4,0 C 64 % 1004,8 hPa 0,0 l/m 6,6 km/h (2 Bft) SO 135 -2,2 C 3,0 C 5,3 km/h (1 Bft)
09.02.2014 15:00 3,1 C 68 % 1004,8 hPa 0,0 l/m 8,9 km/h (2 Bft) S-SO 157 -2,2 C -0,7 C 18,2 km/h (3 Bft)
09.02.2014 15:05 3,3 C 70 % 1005,2 hPa 0,0 l/m 10,1 km/h (2 Bft) S 180 -1,6 C -3,0 C 12,1 km/h (2 Bft)
09.02.2014 15:10 3,2 C 72 % 1005,2 hPa 0,0 l/m 9,2 km/h (2 Bft) S 180 -1,3 C -2,1 C 5,3 km/h (1 Bft)
09.02.2014 15:15 3,2 C 72 % 1005,2 hPa 0,0 l/m 6,0 km/h (2 Bft) S-SW 202 -1,3 C 1,6 C 6,6 km/h (2 Bft)
09.02.2014 15:20 3,3 C 73 % 1005,2 hPa 0,0 l/m 4,5 km/h (1 Bft) O-SO 112 -1,1 C 2,3 C 8,4 km/h (2 Bft)
09.02.2014 15:25 3,3 C 72 % 1005,1 hPa 0,0 l/m 5,1 km/h (1 Bft) W 270 -1,3 C 2,1 C 11,4 km/h (2 Bft)
09.02.2014 15:30 3,1 C 72 % 1005,1 hPa 0,0 l/m 5,8 km/h (2 Bft) S 180 -1,4 C 1,7 C 9,0 km/h (2 Bft)
09.02.2014 15:35 3,3 C 72 % 1005,1 hPa 0,0 l/m 6,9 km/h (2 Bft) S-SO 157 -1,3 C 0,9 C 7,6 km/h (2 Bft)
09.02.2014 15:40 3,3 C 70 % 1005,1 hPa 0,0 l/m 8,2 km/h (2 Bft) S 180 -1,6 C -0,6 C 12,6 km/h (3 Bft)
09.02.2014 15:45 3,2 C 70 % 1005,3 hPa 0,0 l/m 8,5 km/h (2 Bft) S 180 -1,7 C -0,8 C 10,1 km/h (2 Bft)
09.02.2014 15:50 3,1 C 69 % 1005,3 hPa 0,0 l/m 9,0 km/h (2 Bft) S-SO 157 -2,0 C -1,4 C 12,2 km/h (2 Bft)
09.02.2014 15:55 3,0 C 69 % 1005,3 hPa 0,0 l/m 8,0 km/h (2 Bft) S-SO 157 -2,1 C -0,3 C 9,3 km/h (2 Bft)
09.02.2014 16:00 2,9 C 69 % 1005,3 hPa 0,0 l/m 8,0 km/h (2 Bft) S 180 -2,2 C -0,5 C 8,9 km/h (2 Bft)
09.02.2014 16:05 3,0 C 69 % 1005,2 hPa 0,0 l/m 7,7 km/h (2 Bft) S-SO 157 -2,1 C -0,1 C 8,2 km/h (2 Bft)
09.02.2014 16:10 2,6 C 68 % 1005,2 hPa 0,0 l/m 6,8 km/h (2 Bft) S-SO 157 -2,7 C 1,0 C 8,7 km/h (2 Bft)
09.02.2014 16:15 2,4 C 69 % 1005,2 hPa 0,0 l/m 6,9 km/h (2 Bft) S-SW 202 -2,7 C 0,6 C 6,1 km/h (2 Bft)
09.02.2014 16:20 2,6 C 69 % 1005,2 hPa 0,0 l/m 6,3 km/h (2 Bft) SO 135 -2,5 C 1,3 C 8,7 km/h (2 Bft)
09.02.2014 16:25 2,6 C 69 % 1005,2 hPa 0,0 l/m 5,8 km/h (2 Bft) S-SO 157 -2,5 C 1,6 C 6,1 km/h (2 Bft)
09.02.2014 16:30 2,4 C 69 % 1005,2 hPa 0,0 l/m 5,3 km/h (1 Bft) S 180 -2,7 C 1,8 C 3,9 km/h (1 Bft)
09.02.2014 16:35 2,2 C 69 % 1005,2 hPa 0,0 l/m 4,0 km/h (1 Bft) S 180 -2,9 C 2,1 C 3,9 km/h (1 Bft)
09.02.2014 16:40 2,2 C 69 % 1005,2 hPa 0,0 l/m 3,4 km/h (1 Bft) S-SW 202 -2,9 C 2,2 C 6,6 km/h (2 Bft)
09.02.2014 16:45 2,2 C 69 % 1005,2 hPa 0,0 l/m 4,0 km/h (1 Bft) O-SO 112 -2,9 C 1,9 C 3,9 km/h (1 Bft)
09.02.2014 16:50 2,4 C 69 % 1005,2 hPa 0,0 l/m 4,8 km/h (1 Bft) S 180 -2,7 C 1,8 C 4,5 km/h (1 Bft)
09.02.2014 16:55 2,3 C 69 % 1005,2 hPa 0,0 l/m 4,0 km/h (1 Bft) O-SO 112 -2,8 C 2,3 C 0,0 km/h (0 Bft)
09.02.2014 17:00 2,4 C 69 % 1005,2 hPa 0,0 l/m 3,5 km/h (1 Bft) S 180 -2,7 C 2,5 C 3,4 km/h (1 Bft)
09.02.2014 17:05 2,5 C 68 % 1005,4 hPa 0,0 l/m 4,2 km/h (1 Bft) S-SW 202 -2,8 C 2,3 C 6,3 km/h (2 Bft)
09.02.2014 17:10 2,3 C 67 % 1005,4 hPa 0,0 l/m 6,6 km/h (2 Bft) S 180 -3,2 C 1,0 C 7,7 km/h (2 Bft)
09.02.2014 17:15 1,9 C 68 % 1005,4 hPa 0,0 l/m 7,1 km/h (2 Bft) S-SW 202 -3,4 C -0,1 C 7,4 km/h (2 Bft)
09.02.2014 17:20 1,3 C 69 % 1005,4 hPa 0,0 l/m 5,5 km/h (1 Bft) W-SW 247 -3,7 C 0,4 C 5,5 km/h (1 Bft)
09.02.2014 17:25 1,0 C 70 % 1005,2 hPa 0,0 l/m 4,7 km/h (1 Bft) S 180 -3,8 C 0,3 C 5,8 km/h (2 Bft)
09.02.2014 17:30 0,7 C 71 % 1005,2 hPa 0,0 l/m 4,0 km/h (1 Bft) SO 135 -3,9 C 0,0 C 4,8 km/h (1 Bft)
09.02.2014 17:35 0,7 C 72 % 1005,2 hPa 0,0 l/m 3,1 km/h (1 Bft) O-SO 112 -3,8 C 0,3 C 1,8 km/h (1 Bft)
09.02.2014 17:40 0,8 C 72 % 1005,2 hPa 0,0 l/m 3,2 km/h (1 Bft) O-NO 67 -3,7 C -0,3 C 3,5 km/h (1 Bft)
09.02.2014 17:45 0,6 C 72 % 1004,9 hPa 0,0 l/m 3,4 km/h (1 Bft) NO 45 -3,9 C -0,6 C 4,5 km/h (1 Bft)
09.02.2014 17:50 0,4 C 72 % 1004,9 hPa 0,0 l/m 3,5 km/h (1 Bft) O-SO 112 -4,0 C -1,1 C 4,2 km/h (1 Bft)
09.02.2014 17:55 0,5 C 72 % 1004,9 hPa 0,0 l/m 4,0 km/h (1 Bft) O-SO 112 -3,9 C -1,6 C 4,5 km/h (1 Bft)
09.02.2014 18:00 0,5 C 72 % 1004,9 hPa 0,0 l/m 4,0 km/h (1 Bft) O-NO 67 -3,9 C -1,7 C 6,4 km/h (2 Bft)
09.02.2014 18:05 0,5 C 71 % 1005,0 hPa 0,0 l/m 4,3 km/h (1 Bft) O-SO 112 -4,1 C -1,7 C 5,0 km/h (1 Bft)
09.02.2014 18:10 0,3 C 70 % 1005,0 hPa 0,0 l/m 4,2 km/h (1 Bft) S 180 -4,5 C -1,6 C 3,1 km/h (1 Bft)
09.02.2014 18:15 -0,4 C 70 % 1005,0 hPa 0,0 l/m 1,9 km/h (1 Bft) S-SW 202 -5,2 C -0,6 C 0,0 km/h (0 Bft)
09.02.2014 18:20 -1,2 C 71 % 1005,0 hPa 0,0 l/m 0,5 km/h (0 Bft) O-SO 112 -5,8 C -1,4 C 0,0 km/h (0 Bft)
09.02.2014 18:25 -1,2 C 72 % 1004,9 hPa 0,0 l/m 0,3 km/h (0 Bft) NO 45 -5,6 C -1,6 C 3,1 km/h (1 Bft)
09.02.2014 18:30 -0,3 C 72 % 1004,9 hPa 0,0 l/m 1,1 km/h (1 Bft) SO 135 -4,7 C -1,7 C 0,0 km/h (0 Bft)
09.02.2014 18:35 -0,9 C 71 % 1004,9 hPa 0,0 l/m 1,0 km/h (0 Bft) O-SO 112 -5,5 C -1,9 C 0,0 km/h (0 Bft)
09.02.2014 18:39 -1,3 C 72 % 1004,9 hPa 0,0 l/m 0,0 km/h (0 Bft) NO 45 -5,7 C -2,4 C 1,8 km/h (1 Bft)
09.02.2014 18:40 -1,3 C 72 % 1004,9 hPa 0,0 l/m 0,0 km/h (0 Bft) NO 45 -5,7 C -2,4 C 1,8 km/h (1 Bft)
09.02.2014 18:45 -1,4 C 73 % 1005,2 hPa 0,0 l/m 0,0 km/h (0 Bft) NO 45 -5,6 C -2,5 C 0,0 km/h (0 Bft)
09.02.2014 18:50 -1,9 C 73 % 1005,2 hPa 0,0 l/m 0,0 km/h (0 Bft) NO 45 -6,1 C -2,9 C 0,0 km/h (0 Bft)
09.02.2014 18:55 -1,5 C 74 % 1005,2 hPa 0,0 l/m 0,0 km/h (0 Bft) NO 45 -5,5 C -3,0 C 0,0 km/h (0 Bft)
09.02.2014 19:00 -2,0 C 74 % 1005,2 hPa 0,0 l/m 0,0 km/h (0 Bft) NO 45 -6,0 C -3,2 C 0,0 km/h (0 Bft)
09.02.2014 19:05 -2,0 C 75 % 1005,4 hPa 0,0 l/m 0,3 km/h (0 Bft) NO 45 -5,8 C -3,4 C 2,9 km/h (1 Bft)
09.02.2014 19:10 -1,9 C 75 % 1005,4 hPa 0,0 l/m 1,6 km/h (1 Bft) NO 45 -5,7 C -3,4 C 6,8 km/h (2 Bft)
09.02.2014 19:15 -1,8 C 75 % 1005,4 hPa 0,0 l/m 2,1 km/h (1 Bft) NO 45 -5,6 C -3,2 C 0,0 km/h (0 Bft)
09.02.2014 19:20 -2,4 C 75 % 1005,4 hPa 0,0 l/m 0,8 km/h (0 Bft) NO 45 -6,2 C -3,3 C 0,0 km/h (0 Bft)
09.02.2014 19:25 -2,3 C 76 % 1005,6 hPa 0,0 l/m 0,5 km/h (0 Bft) NO 45 -5,9 C -3,5 C 0,0 km/h (0 Bft)
09.02.2014 19:30 -2,8 C 75 % 1005,6 hPa 0,0 l/m 0,5 km/h (0 Bft) NO 45 -6,6 C -3,7 C 0,0 km/h (0 Bft)
09.02.2014 19:35 -2,8 C 76 % 1005,6 hPa 0,0 l/m 0,2 km/h (0 Bft) NO 45 -6,4 C -3,8 C 0,0 km/h (0 Bft)
09.02.2014 19:40 -3,0 C 77 % 1005,6 hPa 0,0 l/m 0,2 km/h (0 Bft) NO 45 -6,4 C -4,0 C 0,0 km/h (0 Bft)
09.02.2014 19:45 -2,8 C 77 % 1005,6 hPa 0,0 l/m 0,0 km/h (0 Bft) NO 45 -6,3 C -4,2 C 0,0 km/h (0 Bft)
09.02.2014 19:50 -3,1 C 77 % 1005,6 hPa 0,0 l/m 0,0 km/h (0 Bft) NO 45 -6,5 C -4,3 C 0,0 km/h (0 Bft)
09.02.2014 19:55 -3,4 C 77 % 1005,6 hPa 0,0 l/m 0,0 km/h (0 Bft) NO 45 -6,8 C -4,3 C 1,9 km/h (1 Bft)
09.02.2014 20:00 -2,8 C 78 % 1005,6 hPa 0,0 l/m 0,5 km/h (0 Bft) NO 45 -6,1 C -4,2 C 0,0 km/h (0 Bft)
09.02.2014 20:05 -2,8 C 78 % 1005,6 hPa 0,0 l/m 0,6 km/h (0 Bft) NO 45 -6,1 C -4,3 C 0,0 km/h (0 Bft)
09.02.2014 20:10 -3,1 C 78 % 1005,6 hPa 0,0 l/m 0,6 km/h (0 Bft) NO 45 -6,4 C -4,3 C 0,0 km/h (0 Bft)
09.02.2014 20:15 -3,3 C 78 % 1005,6 hPa 0,0 l/m 0,3 km/h (0 Bft) NO 45 -6,6 C -4,3 C 0,0 km/h (0 Bft)
09.02.2014 20:20 -2,6 C 79 % 1005,6 hPa 0,0 l/m 0,6 km/h (0 Bft) NO 45 -5,7 C -4,4 C 0,0 km/h (0 Bft)
09.02.2014 20:25 -3,3 C 78 % 1005,5 hPa 0,0 l/m 0,6 km/h (0 Bft) NO 45 -6,6 C -4,3 C 0,0 km/h (0 Bft)
09.02.2014 20:30 -3,8 C 78 % 1005,5 hPa 0,0 l/m 0,3 km/h (0 Bft) NO 45 -7,1 C -4,4 C 0,0 km/h (0 Bft)
09.02.2014 20:35 -4,2 C 78 % 1005,5 hPa 0,0 l/m 0,0 km/h (0 Bft) NO 45 -7,4 C -4,6 C 0,0 km/h (0 Bft)
09.02.2014 20:40 -4,1 C 79 % 1005,5 hPa 0,0 l/m 0,0 km/h (0 Bft) NO 45 -7,2 C -4,7 C 1,6 km/h (1 Bft)
09.02.2014 20:45 -4,0 C 79 % 1005,6 hPa 0,0 l/m 0,2 km/h (0 Bft) NO 45 -7,1 C -4,7 C 0,0 km/h (0 Bft)
09.02.2014 20:50 -3,6 C 81 % 1005,6 hPa 0,0 l/m 0,5 km/h (0 Bft) NO 45 -6,4 C -4,5 C 1,9 km/h (1 Bft)
09.02.2014 20:55 -3,4 C 82 % 1005,6 hPa 0,0 l/m 0,8 km/h (0 Bft) NO 45 -6,0 C -4,2 C 4,0 km/h (1 Bft)
09.02.2014 21:00 -3,2 C 83 % 1005,6 hPa 0,0 l/m 0,8 km/h (0 Bft) NO 45 -5,7 C -3,9 C 0,0 km/h (0 Bft)
09.02.2014 21:05 -3,2 C 83 % 1005,8 hPa 0,0 l/m 0,5 km/h (0 Bft) NO 45 -5,7 C -3,8 C 0,0 km/h (0 Bft)
09.02.2014 21:10 -2,8 C 84 % 1005,8 hPa 0,0 l/m 1,0 km/h (0 Bft) NO 45 -5,1 C -3,7 C 1,9 km/h (1 Bft)
09.02.2014 21:15 -2,9 C 84 % 1005,8 hPa 0,0 l/m 2,1 km/h (1 Bft) NO 45 -5,2 C -3,4 C 0,0 km/h (0 Bft)
09.02.2014 21:20 -3,1 C 83 % 1005,8 hPa 0,0 l/m 1,9 km/h (1 Bft) NO 45 -5,6 C -3,3 C 0,0 km/h (0 Bft)
09.02.2014 21:25 -3,1 C 83 % 1005,4 hPa 0,0 l/m 1,4 km/h (1 Bft) NO 45 -5,6 C -3,3 C 1,8 km/h (1 Bft)
09.02.2014 21:30 -3,2 C 83 % 1005,4 hPa 0,0 l/m 0,5 km/h (0 Bft) NO 45 -5,7 C -3,5 C 0,0 km/h (0 Bft)
09.02.2014 21:35 -3,5 C 83 % 1005,4 hPa 0,0 l/m 0,0 km/h (0 Bft) NO 45 -6,0 C -3,5 C 0,0 km/h (0 Bft)
09.02.2014 21:40 -3,7 C 82 % 1005,4 hPa 0,0 l/m 0,8 km/h (0 Bft) NO 45 -6,3 C -3,6 C 3,4 km/h (1 Bft)
09.02.2014 21:45 -3,6 C 83 % 1005,6 hPa 0,0 l/m 1,6 km/h (1 Bft) NO 45 -6,1 C -3,7 C 3,4 km/h (1 Bft)
09.02.2014 21:50 -3,3 C 83 % 1005,6 hPa 0,0 l/m 1,8 km/h (1 Bft) NO 45 -5,8 C -4,0 C 2,4 km/h (1 Bft)
09.02.2014 21:55 -3,4 C 82 % 1005,6 hPa 0,0 l/m 0,8 km/h (0 Bft) NO 45 -6,0 C -4,1 C 0,0 km/h (0 Bft)
09.02.2014 22:00 -3,4 C 82 % 1005,6 hPa 0,0 l/m 0,5 km/h (0 Bft) NO 45 -6,0 C -4,3 C 0,0 km/h (0 Bft)
09.02.2014 22:05 -3,9 C 82 % 1005,4 hPa 0,0 l/m 0,0 km/h (0 Bft) NO 45 -6,5 C -4,5 C 0,0 km/h (0 Bft)
09.02.2014 22:10 -3,6 C 82 % 1005,4 hPa 0,0 l/m 1,1 km/h (1 Bft) NO 45 -6,2 C -4,5 C 0,0 km/h (0 Bft)
09.02.2014 22:15 -3,9 C 82 % 1005,4 hPa 0,0 l/m 1,1 km/h (1 Bft) NO 45 -6,5 C -4,6 C 0,0 km/h (0 Bft)
09.02.2014 22:20 -4,3 C 82 % 1005,4 hPa 0,0 l/m 0,0 km/h (0 Bft) NO 45 -6,9 C -4,6 C 0,0 km/h (0 Bft)
09.02.2014 22:25 -4,5 C 81 % 1005,4 hPa 0,0 l/m 0,0 km/h (0 Bft) NO 45 -7,3 C -4,9 C 0,0 km/h (0 Bft)
09.02.2014 22:30 -4,1 C 82 % 1005,4 hPa 0,0 l/m 0,2 km/h (0 Bft) NO 45 -6,7 C -5,0 C 0,0 km/h (0 Bft)
09.02.2014 22:35 -4,1 C 82 % 1005,4 hPa 0,0 l/m 0,2 km/h (0 Bft) NO 45 -6,7 C -5,0 C 0,0 km/h (0 Bft)
09.02.2014 22:40 -4,3 C 82 % 1005,4 hPa 0,0 l/m 0,2 km/h (0 Bft) NO 45 -6,9 C -5,0 C 0,0 km/h (0 Bft)
09.02.2014 22:45 -4,6 C 82 % 1005,4 hPa 0,0 l/m 0,2 km/h (0 Bft) NO 45 -7,2 C -5,2 C 0,0 km/h (0 Bft)
09.02.2014 22:50 -5,0 C 82 % 1005,4 hPa 0,0 l/m 0,0 km/h (0 Bft) NO 45 -7,6 C -5,3 C 0,0 km/h (0 Bft)
09.02.2014 22:55 -4,9 C 82 % 1005,4 hPa 0,0 l/m 0,0 km/h (0 Bft) NO 45 -7,5 C -5,5 C 0,0 km/h (0 Bft)
09.02.2014 23:00 -5,2 C 82 % 1005,4 hPa 0,0 l/m 0,0 km/h (0 Bft) NO 45 -7,8 C -5,5 C 0,0 km/h (0 Bft)
09.02.2014 23:05 -5,3 C 83 % 1005,2 hPa 0,0 l/m 0,0 km/h (0 Bft) NO 45 -7,7 C -5,7 C 0,0 km/h (0 Bft)
09.02.2014 23:10 -5,2 C 83 % 1005,2 hPa 0,0 l/m 0,0 km/h (0 Bft) NO 45 -7,6 C -5,9 C 0,0 km/h (0 Bft)
09.02.2014 23:15 -4,9 C 83 % 1005,2 hPa 0,0 l/m 0,0 km/h (0 Bft) NO 45 -7,3 C -5,9 C 0,0 km/h (0 Bft)
09.02.2014 23:20 -4,8 C 84 % 1005,2 hPa 0,0 l/m 0,0 km/h (0 Bft) NO 45 -7,1 C -5,6 C 0,0 km/h (0 Bft)
09.02.2014 23:25 -5,1 C 84 % 1005,1 hPa 0,0 l/m 0,0 km/h (0 Bft) NO 45 -7,4 C -5,6 C 0,0 km/h (0 Bft)
09.02.2014 23:30 -5,0 C 84 % 1005,1 hPa 0,0 l/m 0,0 km/h (0 Bft) NO 45 -7,3 C -5,7 C 0,0 km/h (0 Bft)
09.02.2014 23:35 -4,9 C 84 % 1005,1 hPa 0,0 l/m 0,0 km/h (0 Bft) NO 45 -7,2 C -5,9 C 0,0 km/h (0 Bft)
09.02.2014 23:39 -5,4 C 84 % 1005,1 hPa 0,0 l/m 0,0 km/h (0 Bft) NO 45 -7,7 C -5,6 C 0,0 km/h (0 Bft)
09.02.2014 23:40 -5,4 C 84 % 1005,1 hPa 0,0 l/m 0,0 km/h (0 Bft) NO 45 -7,7 C -5,6 C 0,0 km/h (0 Bft)
09.02.2014 23:45 -5,4 C 84 % 1005,3 hPa 0,0 l/m 0,0 km/h (0 Bft) NO 45 -7,7 C -5,7 C 0,0 km/h (0 Bft)
09.02.2014 23:50 -5,2 C 84 % 1005,3 hPa 0,0 l/m 0,0 km/h (0 Bft) NO 45 -7,5 C -5,6 C 0,0 km/h (0 Bft)
09.02.2014 23:55 -5,5 C 84 % 1005,3 hPa 0,0 l/m 0,0 km/h (0 Bft) NO 45 -7,8 C -5,7 C 0,0 km/h (0 Bft)
_ Min-Zeit 23:55 13:50 01:40 - 23:55 - - 23:00 03:20 23:55
Minimum _ -5,5 C 51 % 1002,1 hPa - 0,0 km/h (0 Bft) - - -7,8 C -7,7 C 0,0 km/h (0 Bft)
_ Max-Zeit 12:50 05:05 21:20 23:55 14:10 - - 05:05 13:35 01:40
Maximum _ 5,5 C 93 % 1005,8 hPa 0,0 l/m 15,0 km/h
S-SO (3 Bft)
- - 0,4 C 4,4 C 31,4 km/h
S (5 Bft)
Durchschnitt _ 1,2 C 75 % 1004,1 hPa #0,0 l/m 6,1 km/h (2 Bft) S - -2,9 C -1,6 C 7,6 km/h (2 Bft)